sensor_id;sensor_type;location;lat;lon;timestamp;pressure;altitude;pressure_sealevel;temperature;humidity
83424;BME280;73355;49.044;8.686;2024-02-04T00:00:44;100793.69;;;9.04;71.32
83424;BME280;73355;49.044;8.686;2024-02-04T00:03:10;100783.66;;;9.08;71.42
83424;BME280;73355;49.044;8.686;2024-02-04T00:05:36;100768.19;;;9.12;71.42
83424;BME280;73355;49.044;8.686;2024-02-04T00:08:01;100766.22;;;9.09;71.48
83424;BME280;73355;49.044;8.686;2024-02-04T00:10:27;100749.50;;;9.07;71.87
83424;BME280;73355;49.044;8.686;2024-02-04T00:12:53;100733.31;;;9.14;71.74
83424;BME280;73355;49.044;8.686;2024-02-04T00:15:20;100736.72;;;9.07;71.81
83424;BME280;73355;49.044;8.686;2024-02-04T00:17:45;100749.94;;;9.09;71.83
83424;BME280;73355;49.044;8.686;2024-02-04T00:20:10;100749.97;;;9.12;71.52
83424;BME280;73355;49.044;8.686;2024-02-04T00:22:36;100749.97;;;9.12;71.71
83424;BME280;73355;49.044;8.686;2024-02-04T00:25:02;100761.72;;;9.20;71.72
83424;BME280;73355;49.044;8.686;2024-02-04T00:27:31;100723.25;;;9.18;71.41
83424;BME280;73355;49.044;8.686;2024-02-04T00:29:58;100730.25;;;9.19;71.56
83424;BME280;73355;49.044;8.686;2024-02-04T00:32:26;100732.56;;;9.17;71.77
83424;BME280;73355;49.044;8.686;2024-02-04T00:34:52;100712.81;;;9.20;71.53
83424;BME280;73355;49.044;8.686;2024-02-04T00:37:18;100723.31;;;9.22;71.42
83424;BME280;73355;49.044;8.686;2024-02-04T00:39:43;100731.88;;;9.24;71.59
83424;BME280;73355;49.044;8.686;2024-02-04T00:42:09;100727.19;;;9.21;71.39
83424;BME280;73355;49.044;8.686;2024-02-04T00:44:34;100739.56;;;9.18;71.59
83424;BME280;73355;49.044;8.686;2024-02-04T00:47:00;100735.28;;;9.17;71.60
83424;BME280;73355;49.044;8.686;2024-02-04T00:49:25;100737.63;;;9.19;71.63
83424;BME280;73355;49.044;8.686;2024-02-04T00:51:52;100747.78;;;9.22;71.31
83424;BME280;73355;49.044;8.686;2024-02-04T00:54:17;100761.81;;;9.27;71.28
83424;BME280;73355;49.044;8.686;2024-02-04T00:56:42;100757.97;;;9.32;71.04
83424;BME280;73355;49.044;8.686;2024-02-04T00:59:08;100761.13;;;9.34;70.83
83424;BME280;73355;49.044;8.686;2024-02-04T01:01:33;100754.19;;;9.40;70.60
83424;BME280;73355;49.044;8.686;2024-02-04T01:03:59;100748.03;;;9.43;70.24
83424;BME280;73355;49.044;8.686;2024-02-04T01:06:24;100751.00;;;9.34;69.94
83424;BME280;73355;49.044;8.686;2024-02-04T01:08:58;100737.44;;;9.34;70.23
83424;BME280;73355;49.044;8.686;2024-02-04T01:11:24;100745.56;;;9.34;70.24
83424;BME280;73355;49.044;8.686;2024-02-04T01:13:49;100740.13;;;9.34;69.88
83424;BME280;73355;49.044;8.686;2024-02-04T01:16:15;100748.75;;;9.40;70.18
83424;BME280;73355;49.044;8.686;2024-02-04T01:18:40;100749.59;;;9.44;69.65
83424;BME280;73355;49.044;8.686;2024-02-04T01:21:05;100747.69;;;9.48;69.42
83424;BME280;73355;49.044;8.686;2024-02-04T01:23:31;100746.19;;;9.50;69.21
83424;BME280;73355;49.044;8.686;2024-02-04T01:25:57;100741.56;;;9.54;69.13
83424;BME280;73355;49.044;8.686;2024-02-04T01:28:22;100737.63;;;9.52;68.88
83424;BME280;73355;49.044;8.686;2024-02-04T01:30:47;100751.56;;;9.47;69.17
83424;BME280;73355;49.044;8.686;2024-02-04T01:33:13;100757.84;;;9.51;68.96
83424;BME280;73355;49.044;8.686;2024-02-04T01:35:38;100741.84;;;9.46;69.09
83424;BME280;73355;49.044;8.686;2024-02-04T01:38:04;100738.72;;;9.44;69.18
83424;BME280;73355;49.044;8.686;2024-02-04T01:40:29;100732.16;;;9.45;69.15
83424;BME280;73355;49.044;8.686;2024-02-04T01:42:55;100743.03;;;9.48;69.21
83424;BME280;73355;49.044;8.686;2024-02-04T01:45:21;100758.19;;;9.49;68.86
83424;BME280;73355;49.044;8.686;2024-02-04T01:47:47;100758.56;;;9.48;68.97
83424;BME280;73355;49.044;8.686;2024-02-04T01:50:13;100766.03;;;9.54;68.72
83424;BME280;73355;49.044;8.686;2024-02-04T01:52:39;100760.22;;;9.56;68.32
83424;BME280;73355;49.044;8.686;2024-02-04T01:55:18;100766.75;;;9.51;68.38
83424;BME280;73355;49.044;8.686;2024-02-04T01:57:44;100750.31;;;9.41;68.55
83424;BME280;73355;49.044;8.686;2024-02-04T02:00:10;100747.66;;;9.44;68.39
83424;BME280;73355;49.044;8.686;2024-02-04T02:02:40;100757.69;;;9.40;68.87
83424;BME280;73355;49.044;8.686;2024-02-04T02:05:08;100746.78;;;9.37;68.89
83424;BME280;73355;49.044;8.686;2024-02-04T02:07:34;100742.84;;;9.34;68.47
83424;BME280;73355;49.044;8.686;2024-02-04T02:09:59;100752.22;;;9.37;68.50
83424;BME280;73355;49.044;8.686;2024-02-04T02:12:50;100742.94;;;9.41;68.28
83424;BME280;73355;49.044;8.686;2024-02-04T02:15:21;100742.13;;;9.37;68.06
83424;BME280;73355;49.044;8.686;2024-02-04T02:17:55;100737.81;;;9.33;68.15
83424;BME280;73355;49.044;8.686;2024-02-04T02:20:38;100722.66;;;9.32;68.43
83424;BME280;73355;49.044;8.686;2024-02-04T02:23:10;100720.75;;;9.36;68.41
83424;BME280;73355;49.044;8.686;2024-02-04T02:25:37;100733.63;;;9.39;68.11
83424;BME280;73355;49.044;8.686;2024-02-04T02:28:04;100718.75;;;9.29;68.33
83424;BME280;73355;49.044;8.686;2024-02-04T02:30:30;100701.72;;;9.32;68.62
83424;BME280;73355;49.044;8.686;2024-02-04T02:32:56;100695.03;;;9.26;68.61
83424;BME280;73355;49.044;8.686;2024-02-04T02:35:22;100705.25;;;9.36;68.42
83424;BME280;73355;49.044;8.686;2024-02-04T02:37:56;100702.84;;;9.31;68.37
83424;BME280;73355;49.044;8.686;2024-02-04T02:40:29;100703.63;;;9.28;68.75
83424;BME280;73355;49.044;8.686;2024-02-04T02:42:57;100698.22;;;9.32;68.24
83424;BME280;73355;49.044;8.686;2024-02-04T02:45:24;100693.50;;;9.29;68.07
83424;BME280;73355;49.044;8.686;2024-02-04T02:47:52;100699.31;;;9.27;68.31
83424;BME280;73355;49.044;8.686;2024-02-04T02:50:19;100698.53;;;9.27;68.29
83424;BME280;73355;49.044;8.686;2024-02-04T02:52:45;100686.56;;;9.31;67.91
83424;BME280;73355;49.044;8.686;2024-02-04T02:55:10;100702.44;;;9.29;68.07
83424;BME280;73355;49.044;8.686;2024-02-04T02:57:36;100693.50;;;9.29;68.43
83424;BME280;73355;49.044;8.686;2024-02-04T03:00:01;100688.47;;;9.27;68.30
83424;BME280;73355;49.044;8.686;2024-02-04T03:02:27;100681.47;;;9.26;68.12
83424;BME280;73355;49.044;8.686;2024-02-04T03:04:52;100686.81;;;9.19;68.51
83424;BME280;73355;49.044;8.686;2024-02-04T03:07:17;100678.66;;;9.19;68.60
83424;BME280;73355;49.044;8.686;2024-02-04T03:09:43;100669.03;;;9.25;68.14
83424;BME280;73355;49.044;8.686;2024-02-04T03:12:09;100675.56;;;9.21;68.39
83424;BME280;73355;49.044;8.686;2024-02-04T03:14:34;100686.06;;;9.22;68.47
83424;BME280;73355;49.044;8.686;2024-02-04T03:17:00;100672.50;;;9.22;68.64
83424;BME280;73355;49.044;8.686;2024-02-04T03:19:25;100663.91;;;9.20;68.86
83424;BME280;73355;49.044;8.686;2024-02-04T03:21:50;100674.47;;;9.29;68.68
83424;BME280;73355;49.044;8.686;2024-02-04T03:24:16;100672.53;;;9.26;68.56
83424;BME280;73355;49.044;8.686;2024-02-04T03:26:41;100658.13;;;9.22;68.54
83424;BME280;73355;49.044;8.686;2024-02-04T03:29:06;100655.00;;;9.20;68.70
83424;BME280;73355;49.044;8.686;2024-02-04T03:31:32;100662.38;;;9.23;68.54
83424;BME280;73355;49.044;8.686;2024-02-04T03:33:58;100682.16;;;9.20;68.75
83424;BME280;73355;49.044;8.686;2024-02-04T03:36:24;100662.38;;;9.23;68.92
83424;BME280;73355;49.044;8.686;2024-02-04T03:38:53;100674.81;;;9.24;68.93
83424;BME280;73355;49.044;8.686;2024-02-04T03:41:29;100664.81;;;9.31;68.58
83424;BME280;73355;49.044;8.686;2024-02-04T03:43:54;100678.09;;;9.40;68.09
83424;BME280;73355;49.044;8.686;2024-02-04T03:46:20;100680.66;;;9.26;68.51
83424;BME280;73355;49.044;8.686;2024-02-04T03:48:46;100681.47;;;9.26;69.04
83424;BME280;73355;49.044;8.686;2024-02-04T03:51:18;100673.31;;;9.26;69.07
83424;BME280;73355;49.044;8.686;2024-02-04T03:53:44;100673.34;;;9.30;69.23
83424;BME280;73355;49.044;8.686;2024-02-04T03:56:09;100687.25;;;9.25;69.47
83424;BME280;73355;49.044;8.686;2024-02-04T03:58:36;100697.78;;;9.30;69.06
83424;BME280;73355;49.044;8.686;2024-02-04T04:01:01;100695.16;;;9.37;69.25
83424;BME280;73355;49.044;8.686;2024-02-04T04:03:26;100694.28;;;9.29;68.95
83424;BME280;73355;49.044;8.686;2024-02-04T04:05:56;100693.13;;;9.30;68.88
83424;BME280;73355;49.044;8.686;2024-02-04T04:08:22;100695.13;;;9.33;69.08
83424;BME280;73355;49.044;8.686;2024-02-04T04:10:47;100692.00;;;9.31;68.97
83424;BME280;73355;49.044;8.686;2024-02-04T04:13:13;100694.75;;;9.35;69.19
83424;BME280;73355;49.044;8.686;2024-02-04T04:15:38;100702.16;;;9.38;69.08
83424;BME280;73355;49.044;8.686;2024-02-04T04:18:04;100712.69;;;9.43;69.17
83424;BME280;73355;49.044;8.686;2024-02-04T04:20:30;100715.84;;;9.45;68.89
83424;BME280;73355;49.044;8.686;2024-02-04T04:22:57;100721.31;;;9.52;68.95
83424;BME280;73355;49.044;8.686;2024-02-04T04:25:22;100715.53;;;9.53;68.58
83424;BME280;73355;49.044;8.686;2024-02-04T04:27:49;100729.16;;;9.57;68.24
83424;BME280;73355;49.044;8.686;2024-02-04T04:30:16;100724.22;;;9.66;67.97
83424;BME280;73355;49.044;8.686;2024-02-04T04:32:44;100714.03;;;9.60;67.60
83424;BME280;73355;49.044;8.686;2024-02-04T04:35:44;100729.53;;;9.56;67.86
83424;BME280;73355;49.044;8.686;2024-02-04T04:38:10;100714.38;;;9.54;67.79
83424;BME280;73355;49.044;8.686;2024-02-04T04:40:47;100725.25;;;9.54;67.61
83424;BME280;73355;49.044;8.686;2024-02-04T04:43:13;100708.06;;;9.47;67.48
83424;BME280;73355;49.044;8.686;2024-02-04T04:45:42;100714.28;;;9.44;67.65
83424;BME280;73355;49.044;8.686;2024-02-04T04:48:09;100717.72;;;9.41;67.67
83424;BME280;73355;49.044;8.686;2024-02-04T04:50:35;100711.91;;;9.42;67.75
83424;BME280;73355;49.044;8.686;2024-02-04T04:53:02;100717.31;;;9.39;67.72
83424;BME280;73355;49.044;8.686;2024-02-04T04:55:29;100713.75;;;9.35;67.80
83424;BME280;73355;49.044;8.686;2024-02-04T04:57:55;100713.44;;;9.40;67.93
83424;BME280;73355;49.044;8.686;2024-02-04T05:00:20;100717.72;;;9.41;67.56
83424;BME280;73355;49.044;8.686;2024-02-04T05:02:45;100728.56;;;9.41;67.73
83424;BME280;73355;49.044;8.686;2024-02-04T05:05:13;100729.00;;;9.43;67.76
83424;BME280;73355;49.044;8.686;2024-02-04T05:07:39;100728.56;;;9.37;67.70
83424;BME280;73355;49.044;8.686;2024-02-04T05:10:13;100728.19;;;9.39;67.74
83424;BME280;73355;49.044;8.686;2024-02-04T05:12:42;100732.88;;;9.42;67.40
83424;BME280;73355;49.044;8.686;2024-02-04T05:15:08;100728.56;;;9.37;67.65
83424;BME280;73355;49.044;8.686;2024-02-04T05:17:34;100723.84;;;9.34;67.32
83424;BME280;73355;49.044;8.686;2024-02-04T05:20:02;100725.03;;;9.37;67.34
83424;BME280;73355;49.044;8.686;2024-02-04T05:22:32;100730.03;;;9.31;67.22
83424;BME280;73355;49.044;8.686;2024-02-04T05:24:57;100720.38;;;9.34;67.24
83424;BME280;73355;49.044;8.686;2024-02-04T05:27:25;100714.41;;;9.25;67.21
83424;BME280;73355;49.044;8.686;2024-02-04T05:29:51;100729.91;;;9.21;67.69
83424;BME280;73355;49.044;8.686;2024-02-04T05:32:19;100718.28;;;9.24;67.40
83424;BME280;73355;49.044;8.686;2024-02-04T05:34:44;100709.75;;;9.22;67.50
83424;BME280;73355;49.044;8.686;2024-02-04T05:37:42;100716.34;;;9.24;67.24
83424;BME280;73355;49.044;8.686;2024-02-04T05:40:07;100715.91;;;9.19;67.43
83424;BME280;73355;49.044;8.686;2024-02-04T05:42:34;100717.03;;;9.18;67.35
83424;BME280;73355;49.044;8.686;2024-02-04T05:45:01;100710.78;;;9.13;67.40
83424;BME280;73355;49.044;8.686;2024-02-04T05:47:26;100715.34;;;9.06;67.78
83424;BME280;73355;49.044;8.686;2024-02-04T05:49:51;100710.69;;;9.06;68.00
83424;BME280;73355;49.044;8.686;2024-02-04T05:52:17;100715.75;;;9.08;67.91
83424;BME280;73355;49.044;8.686;2024-02-04T05:54:42;100715.09;;;9.18;67.83
83424;BME280;73355;49.044;8.686;2024-02-04T05:57:08;100725.94;;;9.15;67.84
83424;BME280;73355;49.044;8.686;2024-02-04T05:59:33;100722.09;;;9.16;67.52
83424;BME280;73355;49.044;8.686;2024-02-04T06:01:59;100716.19;;;9.10;67.83
83424;BME280;73355;49.044;8.686;2024-02-04T06:04:28;100724.00;;;9.15;67.76
83424;BME280;73355;49.044;8.686;2024-02-04T06:06:54;100719.63;;;9.07;68.00
83424;BME280;73355;49.044;8.686;2024-02-04T06:09:19;100721.97;;;9.08;67.99
83424;BME280;73355;49.044;8.686;2024-02-04T06:11:46;100722.34;;;9.07;67.92
83424;BME280;73355;49.044;8.686;2024-02-04T06:14:12;100739.44;;;9.07;68.12
83424;BME280;73355;49.044;8.686;2024-02-04T06:16:37;100735.13;;;9.06;67.99
83424;BME280;73355;49.044;8.686;2024-02-04T06:19:03;100729.00;;;9.09;67.82
83424;BME280;73355;49.044;8.686;2024-02-04T06:21:28;100727.09;;;9.13;67.89
83424;BME280;73355;49.044;8.686;2024-02-04T06:23:55;100753.09;;;9.15;67.88
83424;BME280;73355;49.044;8.686;2024-02-04T06:26:20;100739.53;;;9.15;68.00
83424;BME280;73355;49.044;8.686;2024-02-04T06:28:45;100741.78;;;9.09;68.11
83424;BME280;73355;49.044;8.686;2024-02-04T06:31:14;100734.81;;;9.11;68.19
83424;BME280;73355;49.044;8.686;2024-02-04T06:33:39;100741.03;;;9.12;67.92
83424;BME280;73355;49.044;8.686;2024-02-04T06:36:09;100747.66;;;9.15;68.10
83424;BME280;73355;49.044;8.686;2024-02-04T06:38:35;100732.97;;;9.19;68.01
83424;BME280;73355;49.044;8.686;2024-02-04T06:41:01;100730.22;;;9.16;67.72
83424;BME280;73355;49.044;8.686;2024-02-04T06:43:28;100722.81;;;9.12;68.13
83424;BME280;73355;49.044;8.686;2024-02-04T06:45:53;100740.31;;;9.15;67.89
83424;BME280;73355;49.044;8.686;2024-02-04T06:48:19;100727.19;;;9.21;67.95
83424;BME280;73355;49.044;8.686;2024-02-04T06:50:44;100740.69;;;9.17;67.54
83424;BME280;73355;49.044;8.686;2024-02-04T06:53:11;100738.38;;;9.16;67.91
83424;BME280;73355;49.044;8.686;2024-02-04T06:55:41;100724.34;;;9.10;67.80
83424;BME280;73355;49.044;8.686;2024-02-04T06:58:06;100733.22;;;9.07;68.18
83424;BME280;73355;49.044;8.686;2024-02-04T07:00:32;100737.06;;;9.06;68.13
83424;BME280;73355;49.044;8.686;2024-02-04T07:02:57;100727.75;;;9.03;68.06
83424;BME280;73355;49.044;8.686;2024-02-04T07:05:22;100730.56;;;9.10;68.31
83424;BME280;73355;49.044;8.686;2024-02-04T07:07:49;100733.97;;;9.04;68.24
83424;BME280;73355;49.044;8.686;2024-02-04T07:10:15;100746.44;;;9.08;68.43
83424;BME280;73355;49.044;8.686;2024-02-04T07:12:40;100733.97;;;9.04;68.86
83424;BME280;73355;49.044;8.686;2024-02-04T07:15:07;100730.09;;;9.05;68.73
83424;BME280;73355;49.044;8.686;2024-02-04T07:17:36;100723.09;;;9.04;68.87
83424;BME280;73355;49.044;8.686;2024-02-04T07:20:02;100744.91;;;9.11;68.85
83424;BME280;73355;49.044;8.686;2024-02-04T07:22:36;100733.75;;;9.20;68.87
83424;BME280;73355;49.044;8.686;2024-02-04T07:25:01;100745.84;;;9.22;68.79
83424;BME280;73355;49.044;8.686;2024-02-04T07:27:28;100746.53;;;9.16;68.84
83424;BME280;73355;49.044;8.686;2024-02-04T07:29:56;100742.97;;;9.11;69.10
83424;BME280;73355;49.044;8.686;2024-02-04T07:32:23;100733.66;;;9.12;69.20
83424;BME280;73355;49.044;8.686;2024-02-04T07:34:49;100748.47;;;9.15;69.63
83424;BME280;73355;49.044;8.686;2024-02-04T07:37:14;100746.56;;;9.19;69.30
83424;BME280;73355;49.044;8.686;2024-02-04T07:39:40;100752.81;;;9.23;69.14
83424;BME280;73355;49.044;8.686;2024-02-04T07:42:05;100749.19;;;9.12;69.72
83424;BME280;73355;49.044;8.686;2024-02-04T07:44:31;100749.56;;;9.10;69.70
83424;BME280;73355;49.044;8.686;2024-02-04T07:46:56;100750.38;;;9.15;69.66
83424;BME280;73355;49.044;8.686;2024-02-04T07:49:21;100736.47;;;9.20;69.80
83424;BME280;73355;49.044;8.686;2024-02-04T07:51:47;100731.47;;;9.22;69.83
83424;BME280;73355;49.044;8.686;2024-02-04T07:54:13;100736.56;;;9.27;69.78
83424;BME280;73355;49.044;8.686;2024-02-04T07:56:38;100733.50;;;9.28;69.78
83424;BME280;73355;49.044;8.686;2024-02-04T07:59:03;100733.97;;;9.37;69.53
83424;BME280;73355;49.044;8.686;2024-02-04T08:01:29;100735.13;;;9.36;69.50
83424;BME280;73355;49.044;8.686;2024-02-04T08:03:55;100741.00;;;9.38;69.52
83424;BME280;73355;49.044;8.686;2024-02-04T08:06:21;100736.47;;;9.49;69.13
83424;BME280;73355;49.044;8.686;2024-02-04T08:08:46;100736.78;;;9.44;69.23
83424;BME280;73355;49.044;8.686;2024-02-04T08:11:16;100725.13;;;9.44;69.25
83424;BME280;73355;49.044;8.686;2024-02-04T08:13:42;100725.94;;;9.48;69.09
83424;BME280;73355;49.044;8.686;2024-02-04T08:16:08;100737.63;;;9.52;68.77
83424;BME280;73355;49.044;8.686;2024-02-04T08:18:34;100731.88;;;9.57;67.88
83424;BME280;73355;49.044;8.686;2024-02-04T08:20:59;100737.28;;;9.53;68.16
83424;BME280;73355;49.044;8.686;2024-02-04T08:23:24;100731.03;;;9.49;68.28
83424;BME280;73355;49.044;8.686;2024-02-04T08:25:50;100736.09;;;9.51;68.14
83424;BME280;73355;49.044;8.686;2024-02-04T08:28:15;100727.53;;;9.52;68.12
83424;BME280;73355;49.044;8.686;2024-02-04T08:30:41;100734.56;;;9.53;67.84
83424;BME280;73355;49.044;8.686;2024-02-04T08:33:09;100738.06;;;9.54;67.83
83424;BME280;73355;49.044;8.686;2024-02-04T08:35:35;100739.25;;;9.57;67.94
83424;BME280;73355;49.044;8.686;2024-02-04T08:38:00;100730.03;;;9.68;67.48
83424;BME280;73355;49.044;8.686;2024-02-04T08:40:26;100733.50;;;9.62;67.33
83424;BME280;73355;49.044;8.686;2024-02-04T08:42:51;100726.56;;;9.68;67.30
83424;BME280;73355;49.044;8.686;2024-02-04T08:45:16;100717.19;;;9.62;67.32
83424;BME280;73355;49.044;8.686;2024-02-04T08:47:42;100724.94;;;9.63;67.63
83424;BME280;73355;49.044;8.686;2024-02-04T08:50:08;100749.81;;;9.62;67.47
83424;BME280;73355;49.044;8.686;2024-02-04T08:52:33;100740.16;;;9.68;67.12
83424;BME280;73355;49.044;8.686;2024-02-04T08:54:59;100737.13;;;9.76;66.83
83424;BME280;73355;49.044;8.686;2024-02-04T08:57:25;100743.69;;;9.72;66.91
83424;BME280;73355;49.044;8.686;2024-02-04T08:59:50;100744.81;;;9.67;66.79
83424;BME280;73355;49.044;8.686;2024-02-04T09:02:16;100735.44;;;9.65;66.78
83424;BME280;73355;49.044;8.686;2024-02-04T09:04:42;100743.31;;;9.73;66.75
83424;BME280;73355;49.044;8.686;2024-02-04T09:07:09;100745.91;;;9.63;67.05
83424;BME280;73355;49.044;8.686;2024-02-04T09:09:38;100743.59;;;9.65;67.20
83424;BME280;73355;49.044;8.686;2024-02-04T09:12:21;100734.78;;;9.75;66.92
83424;BME280;73355;49.044;8.686;2024-02-04T09:14:47;100749.50;;;9.70;66.87
83424;BME280;73355;49.044;8.686;2024-02-04T09:17:13;100750.25;;;9.67;66.89
83424;BME280;73355;49.044;8.686;2024-02-04T09:19:39;100740.91;;;9.68;66.67
83424;BME280;73355;49.044;8.686;2024-02-04T09:22:04;100744.06;;;9.70;66.66
83424;BME280;73355;49.044;8.686;2024-02-04T09:24:30;100741.00;;;9.75;66.65
83424;BME280;73355;49.044;8.686;2024-02-04T09:26:55;100744.47;;;9.72;66.66
83424;BME280;73355;49.044;8.686;2024-02-04T09:29:21;100737.16;;;9.80;66.54
83424;BME280;73355;49.044;8.686;2024-02-04T09:31:46;100743.03;;;9.85;66.46
83424;BME280;73355;49.044;8.686;2024-02-04T09:34:11;100742.81;;;10.01;65.62
83424;BME280;73355;49.044;8.686;2024-02-04T09:36:37;100729.53;;;9.92;65.90
83424;BME280;73355;49.044;8.686;2024-02-04T09:39:02;100725.63;;;9.90;65.53
83424;BME280;73355;49.044;8.686;2024-02-04T09:41:28;100728.28;;;9.86;66.04
83424;BME280;73355;49.044;8.686;2024-02-04T09:43:54;100718.69;;;9.96;65.72
83424;BME280;73355;49.044;8.686;2024-02-04T09:46:20;100726.78;;;9.92;65.74
83424;BME280;73355;49.044;8.686;2024-02-04T09:48:45;100711.25;;;9.89;65.72
83424;BME280;73355;49.044;8.686;2024-02-04T09:51:11;100715.53;;;9.90;65.99
83424;BME280;73355;49.044;8.686;2024-02-04T09:53:43;100693.72;;;9.87;66.12
83424;BME280;73355;49.044;8.686;2024-02-04T09:56:08;100702.66;;;9.87;66.16
83424;BME280;73355;49.044;8.686;2024-02-04T09:58:35;100705.09;;;9.96;65.85
83424;BME280;73355;49.044;8.686;2024-02-04T10:01:02;100712.94;;;10.05;65.82
83424;BME280;73355;49.044;8.686;2024-02-04T10:03:28;100706.34;;;10.06;65.78
83424;BME280;73355;49.044;8.686;2024-02-04T10:05:53;100723.13;;;10.15;65.39
83424;BME280;73355;49.044;8.686;2024-02-04T10:08:20;100713.78;;;10.16;65.40
83424;BME280;73355;49.044;8.686;2024-02-04T10:10:46;100730.56;;;10.18;65.20
83424;BME280;73355;49.044;8.686;2024-02-04T10:13:12;100723.09;;;10.11;65.57
83424;BME280;73355;49.044;8.686;2024-02-04T10:15:37;100721.16;;;10.15;65.19
83424;BME280;73355;49.044;8.686;2024-02-04T10:18:06;100741.88;;;10.23;65.23
83424;BME280;73355;49.044;8.686;2024-02-04T10:20:32;100735.69;;;10.26;64.92
83424;BME280;73355;49.044;8.686;2024-02-04T10:22:58;100741.47;;;10.21;64.93
83424;BME280;73355;49.044;8.686;2024-02-04T10:25:23;100740.72;;;10.24;64.89
83424;BME280;73355;49.044;8.686;2024-02-04T10:27:49;100736.31;;;10.13;65.00
83424;BME280;73355;49.044;8.686;2024-02-04T10:30:20;100725.03;;;10.14;65.17
83424;BME280;73355;49.044;8.686;2024-02-04T10:32:47;100709.50;;;10.15;65.39
83424;BME280;73355;49.044;8.686;2024-02-04T10:35:13;100694.34;;;10.14;65.50
83424;BME280;73355;49.044;8.686;2024-02-04T10:37:38;100696.78;;;10.22;65.65
83424;BME280;73355;49.044;8.686;2024-02-04T10:40:04;100699.16;;;10.27;65.28
83424;BME280;73355;49.044;8.686;2024-02-04T10:42:31;100713.16;;;10.29;65.47
83424;BME280;73355;49.044;8.686;2024-02-04T10:44:58;100709.69;;;10.32;64.83
83424;BME280;73355;49.044;8.686;2024-02-04T10:47:29;100700.72;;;10.25;65.03
83424;BME280;73355;49.044;8.686;2024-02-04T10:49:57;100711.53;;;10.21;65.15
83424;BME280;73355;49.044;8.686;2024-02-04T10:52:24;100695.28;;;10.28;65.07
83424;BME280;73355;49.044;8.686;2024-02-04T10:54:55;100682.50;;;10.36;65.44
83424;BME280;73355;49.044;8.686;2024-02-04T10:57:24;100697.63;;;10.30;65.23
83424;BME280;73355;49.044;8.686;2024-02-04T10:59:51;100696.06;;;10.29;65.30
83424;BME280;73355;49.044;8.686;2024-02-04T11:02:17;100699.13;;;10.24;65.30
83424;BME280;73355;49.044;8.686;2024-02-04T11:04:45;100706.56;;;10.30;65.45
83424;BME280;73355;49.044;8.686;2024-02-04T11:07:13;100725.31;;;10.43;65.12
83424;BME280;73355;49.044;8.686;2024-02-04T11:09:46;100711.38;;;10.51;64.85
83424;BME280;73355;49.044;8.686;2024-02-04T11:12:16;100704.75;;;10.49;64.49
83424;BME280;73355;49.044;8.686;2024-02-04T11:14:45;100704.66;;;10.38;64.60
83424;BME280;73355;49.044;8.686;2024-02-04T11:17:51;100718.28;;;10.38;64.71
83424;BME280;73355;49.044;8.686;2024-02-04T11:20:45;100675.88;;;10.37;64.88
83424;BME280;73355;49.044;8.686;2024-02-04T11:23:40;100666.59;;;10.42;64.74
83424;BME280;73355;49.044;8.686;2024-02-04T11:26:07;100662.69;;;10.43;64.31
83424;BME280;73355;49.044;8.686;2024-02-04T11:28:33;100653.75;;;10.39;64.77
83424;BME280;73355;49.044;8.686;2024-02-04T11:31:09;100666.25;;;10.47;64.91
83424;BME280;73355;49.044;8.686;2024-02-04T11:33:38;100676.78;;;10.55;64.65
83424;BME280;73355;49.044;8.686;2024-02-04T11:36:04;100659.66;;;10.48;64.48
83424;BME280;73355;49.044;8.686;2024-02-04T11:38:31;100664.69;;;10.46;64.66
83424;BME280;73355;49.044;8.686;2024-02-04T11:40:56;100661.56;;;10.44;64.53
83424;BME280;73355;49.044;8.686;2024-02-04T11:43:33;100645.22;;;10.44;64.51
83424;BME280;73355;49.044;8.686;2024-02-04T11:45:59;100647.19;;;10.47;64.74
83424;BME280;73355;49.044;8.686;2024-02-04T11:48:29;100639.03;;;10.47;64.75
83424;BME280;73355;49.044;8.686;2024-02-04T11:50:55;100644.06;;;10.41;64.92
83424;BME280;73355;49.044;8.686;2024-02-04T11:53:21;100647.09;;;10.32;64.75
83424;BME280;73355;49.044;8.686;2024-02-04T11:55:55;100636.56;;;10.24;65.01
83424;BME280;73355;49.044;8.686;2024-02-04T11:58:20;100652.91;;;10.31;64.69
83424;BME280;73355;49.044;8.686;2024-02-04T12:00:46;100643.16;;;10.23;65.11
83424;BME280;73355;49.044;8.686;2024-02-04T12:03:12;100647.03;;;10.22;65.06
83424;BME280;73355;49.044;8.686;2024-02-04T12:05:37;100649.28;;;10.13;65.53
83424;BME280;73355;49.044;8.686;2024-02-04T12:08:07;100649.16;;;9.99;65.71
83424;BME280;73355;49.044;8.686;2024-02-04T12:10:34;100648.38;;;9.98;66.21
83424;BME280;73355;49.044;8.686;2024-02-04T12:13:04;100625.47;;;9.99;66.20
83424;BME280;73355;49.044;8.686;2024-02-04T12:15:30;100630.16;;;10.06;66.16
83424;BME280;73355;49.044;8.686;2024-02-04T12:18:07;100629.41;;;10.09;66.38
83424;BME280;73355;49.044;8.686;2024-02-04T12:20:50;100635.63;;;10.06;66.38
83424;BME280;73355;49.044;8.686;2024-02-04T12:23:17;100628.59;;;10.01;66.84
83424;BME280;73355;49.044;8.686;2024-02-04T12:25:43;100638.75;;;10.08;66.63
83424;BME280;73355;49.044;8.686;2024-02-04T12:28:08;100625.91;;;10.08;66.51
83424;BME280;73355;49.044;8.686;2024-02-04T12:30:34;100618.56;;;10.16;66.46
83424;BME280;73355;49.044;8.686;2024-02-04T12:33:05;100620.97;;;10.17;66.59
83424;BME280;73355;49.044;8.686;2024-02-04T12:35:31;100619.81;;;10.18;66.28
83424;BME280;73355;49.044;8.686;2024-02-04T12:37:57;100614.81;;;10.27;65.99
83424;BME280;73355;49.044;8.686;2024-02-04T12:40:32;100613.22;;;10.19;66.46
83424;BME280;73355;49.044;8.686;2024-02-04T12:42:59;100620.59;;;10.22;66.48
83424;BME280;73355;49.044;8.686;2024-02-04T12:45:28;100608.94;;;10.22;66.44
83424;BME280;73355;49.044;8.686;2024-02-04T12:47:56;100606.19;;;10.18;66.85
83424;BME280;73355;49.044;8.686;2024-02-04T12:50:22;100610.50;;;10.26;66.68
83424;BME280;73355;49.044;8.686;2024-02-04T12:52:48;100619.09;;;10.28;66.59
83424;BME280;73355;49.044;8.686;2024-02-04T12:55:23;100622.16;;;10.23;66.41
83424;BME280;73355;49.044;8.686;2024-02-04T12:58:07;100616.72;;;10.23;66.90